EYKA

Kaunas International Airport

Kaunas, Lithuania
METAR EYKA 180150Z 07001KT 7000 2900 NSC 14/13 Q1018
Observed Flight Rules
Aug-18 @ 01:50 UTC (40 minutes ago) Marginal Visual Flight Rules
Wind Visibility Clouds
70° at 1 knots 7,001 meters
  • Clear skies
Temperatures Readings
Current 14°C / 57°F
Dewpoint 13°C / 55°F
Humidity 94%
Altimeter 30.06" Hg
Pressure 1018 hPa
Elevation 77
METAR EYKA 180150Z 07001KT 7000 2900 NSC 14/13 Q1018
Observed Flight Rules
Aug-18 @ 01:50 UTC
(40 minutes ago)
MVFR
Wind Visibility
70° at 1 knots 7,001 meters
Clouds
  • Clear skies
Temperature Dewpoint
14°C / 57°F 13°C / 55°F
Humidity Altimeter Pressure
94% 30.06" Hg 1018 hPa